Time;durP1;ratioP1;P1;durP2;ratioP2;P2;SDS_P1;SDS_P2;PMS_P1;PMS_P2;Temp;Humidity;BMP_temperature;BMP_pressure;BME280_temperature;BME280_humidity;BME280_pressure;Samples;Min_cycle;Max_cycle;Signal;HPM_P1;HPM_P2
2022/01/02 00:00:16;;;;;;;3.67;2.87;;;18.40;63.10;19.10;101093.00;;;;5046483;28;20170;-39
2022/01/02 00:02:42;;;;;;;2.80;2.60;;;18.40;63.10;19.10;101095.00;;;;5048411;28;20169;-39
2022/01/02 00:05:12;;;;;;;3.73;3.03;;;18.40;63.20;19.10;101084.00;;;;5049664;28;20599;-39
2022/01/02 00:08:03;;;;;;;4.00;2.90;;;18.40;63.20;18.80;101062.00;;;;5048953;28;20193;-39
2022/01/02 00:10:37;;;;;;;3.53;2.80;;;18.30;62.90;19.00;101061.00;;;;5046117;28;20166;-40
2022/01/02 00:13:03;;;;;;;3.03;2.83;;;18.30;63.00;19.00;101062.00;;;;5045151;28;20170;-39
2022/01/02 00:15:29;;;;;;;3.57;2.80;;;18.30;63.10;19.00;101063.00;;;;5047212;28;20549;-38
2022/01/02 00:18:10;;;;;;;4.80;3.13;;;18.30;63.10;18.90;101055.00;;;;5047396;28;20275;-44
2022/01/02 00:20:45;;;;;;;3.17;2.87;;;18.30;63.10;18.90;101040.00;;;;5047676;28;20155;-40
2022/01/02 00:23:17;;;;;;;3.07;2.77;;;18.20;63.10;18.90;101051.00;;;;5048536;28;20233;-39
2022/01/02 00:25:42;;;;;;;2.90;2.70;;;18.20;63.00;18.90;101042.00;;;;5048323;28;20168;-39
2022/01/02 00:28:12;;;;;;;3.90;2.93;;;18.20;63.00;18.90;101048.00;;;;5046988;28;20184;-39
2022/01/02 00:30:38;;;;;;;3.53;2.97;;;18.20;63.20;18.90;101046.00;;;;5046342;28;20176;-39
2022/01/02 00:33:03;;;;;;;3.27;3.03;;;18.10;63.00;18.80;101053.00;;;;5047292;28;20174;-39
2022/01/02 00:35:30;;;;;;;3.53;3.00;;;18.10;63.10;18.80;101058.00;;;;5047444;28;20211;-39
2022/01/02 00:37:56;;;;;;;3.40;3.10;;;18.10;63.30;18.80;101059.00;;;;5047871;28;20360;-39
2022/01/02 00:40:21;;;;;;;3.23;2.93;;;18.10;63.50;18.80;101065.00;;;;5047386;28;20183;-39
2022/01/02 00:42:53;;;;;;;3.70;2.90;;;18.10;63.50;18.80;101081.00;;;;5046853;28;20179;-39
2022/01/02 00:45:23;;;;;;;3.10;2.90;;;18.10;63.50;18.80;101111.00;;;;5045551;28;20221;-48
2022/01/02 00:48:19;;;;;;;3.27;2.97;;;18.00;63.40;18.70;101096.00;;;;5046597;28;20227;-39
2022/01/02 00:51:05;;;;;;;3.10;2.80;;;18.00;63.40;18.70;101080.00;;;;5045685;28;20583;-40
2022/01/02 00:53:36;;;;;;;3.10;2.80;;;18.00;63.80;18.70;101086.00;;;;5045714;28;20186;-39
2022/01/02 00:56:02;;;;;;;3.20;3.00;;;17.90;63.40;18.70;101077.00;;;;5046885;28;20255;-39
2022/01/02 00:58:58;;;;;;;3.07;2.87;;;17.90;63.70;18.70;101059.00;;;;5046480;28;20212;-39
2022/01/02 01:01:28;;;;;;;2.70;2.50;;;17.90;64.60;18.70;101088.00;;;;5045212;28;20158;-40
2022/01/02 01:03:54;;;;;;;3.90;2.93;;;17.90;63.50;18.70;101086.00;;;;5045600;28;20162;-40
2022/01/02 01:06:25;;;;;;;3.30;3.00;;;17.90;63.50;18.60;101079.00;;;;5045322;28;20199;-39
2022/01/02 01:08:57;;;;;;;3.40;2.73;;;18.00;63.70;18.60;101080.00;;;;5045005;28;20696;-39
2022/01/02 01:11:27;;;;;;;3.27;2.97;;;17.90;63.70;18.60;101075.00;;;;5046295;28;20241;-39
2022/01/02 01:13:56;;;;;;;2.90;2.70;;;17.90;63.60;18.60;101078.00;;;;5045850;28;20189;-40
2022/01/02 01:16:22;;;;;;;3.20;3.00;;;17.90;63.80;18.60;101082.00;;;;5045013;28;20225;-40
2022/01/02 01:18:48;;;;;;;3.00;2.80;;;17.90;63.80;18.60;101081.00;;;;5046023;28;20182;-39
2022/01/02 01:21:14;;;;;;;3.23;2.93;;;17.90;63.80;18.60;101090.00;;;;5044812;28;20848;-38
2022/01/02 01:23:41;;;;;;;3.10;2.80;;;17.80;63.70;18.60;101085.00;;;;5046067;28;20176;-39
2022/01/02 01:26:09;;;;;;;3.70;3.20;;;17.80;63.70;18.60;101090.00;;;;5045669;28;20744;-39
2022/01/02 01:28:35;;;;;;;2.73;2.53;;;17.80;63.70;18.60;101081.00;;;;5042253;28;20176;-39
2022/01/02 01:31:01;;;;;;;3.10;2.90;;;17.80;63.70;18.60;101086.00;;;;5035175;28;20241;-39
2022/01/02 01:33:26;;;;;;;3.57;3.00;;;17.80;63.50;18.60;101092.00;;;;5026118;28;20184;-38
2022/01/02 01:35:52;;;;;;;3.40;3.10;;;17.80;63.60;18.60;101075.00;;;;5025506;28;20695;-39
2022/01/02 01:38:18;;;;;;;3.23;3.00;;;17.80;63.60;18.50;101089.00;;;;5025424;28;20191;-39
2022/01/02 01:40:55;;;;;;;3.27;2.97;;;17.80;63.50;18.60;101082.00;;;;5025393;28;20186;-39
2022/01/02 01:43:30;;;;;;;2.97;2.77;;;17.80;63.50;18.50;101086.00;;;;5023867;28;20387;-41
2022/01/02 01:45:56;;;;;;;3.07;2.87;;;17.80;63.50;18.50;101060.00;;;;5026652;28;20668;-40
2022/01/02 01:48:22;;;;;;;3.30;3.00;;;17.80;63.40;18.50;101062.00;;;;5023171;28;20166;-40
2022/01/02 01:50:47;;;;;;;3.10;2.80;;;17.80;63.40;18.50;101085.00;;;;5024696;28;20186;-42
2022/01/02 01:53:13;;;;;;;3.23;3.03;;;17.80;63.30;18.50;101077.00;;;;5025836;28;20871;-40
2022/01/02 01:55:39;;;;;;;3.30;3.00;;;17.80;63.40;18.50;101081.00;;;;5025554;28;20177;-40
2022/01/02 01:58:05;;;;;;;3.00;2.80;;;17.80;63.40;18.50;101072.00;;;;5025539;28;20233;-40
2022/01/02 02:00:33;;;;;;;3.30;3.00;;;17.80;63.40;18.50;101055.00;;;;5026064;28;20267;-40
2022/01/02 02:02:59;;;;;;;3.20;2.90;;;17.80;63.40;18.50;101052.00;;;;5025826;28;20176;-40
2022/01/02 02:05:25;;;;;;;3.10;2.80;;;17.80;63.40;18.50;101049.00;;;;5024629;28;20176;-40
2022/01/02 02:07:51;;;;;;;3.40;3.10;;;17.80;63.40;18.50;101039.00;;;;5025609;28;20213;-40
2022/01/02 02:10:25;;;;;;;3.10;2.90;;;17.80;63.30;18.50;101040.00;;;;5025702;28;20161;-40
2022/01/02 02:12:53;;;;;;;2.90;2.70;;;17.80;63.40;18.40;101057.00;;;;5028496;28;20155;-40
2022/01/02 02:15:19;;;;;;;3.00;2.80;;;17.80;63.40;18.40;101067.00;;;;5025700;28;20161;-40
2022/01/02 02:17:46;;;;;;;3.67;2.83;;;17.80;63.40;18.40;101066.00;;;;5025532;28;20534;-40
2022/01/02 02:20:21;;;;;;;3.63;3.33;;;17.70;63.20;18.40;101042.00;;;;5025684;28;20164;-40
2022/01/02 02:22:52;;;;;;;2.90;2.70;;;17.80;63.30;18.40;101032.00;;;;5025513;28;20775;-40
2022/01/02 02:25:20;;;;;;;2.80;2.60;;;17.80;63.40;18.40;101029.00;;;;5025261;28;20161;-40
2022/01/02 02:27:49;;;;;;;2.90;2.70;;;17.70;63.30;18.40;101031.00;;;;5024943;28;20188;-38
2022/01/02 02:30:14;;;;;;;3.57;2.97;;;17.70;63.40;18.40;101036.00;;;;5025522;28;20176;-39
2022/01/02 02:32:40;;;;;;;3.20;2.90;;;17.70;63.30;18.40;101033.00;;;;5025546;28;20169;-39
2022/01/02 02:35:06;;;;;;;2.90;2.70;;;17.70;63.30;18.40;101027.00;;;;5025250;28;20177;-39
2022/01/02 02:37:32;;;;;;;3.10;2.90;;;17.60;63.30;18.40;101019.00;;;;5025273;28;20221;-40
2022/01/02 02:39:57;;;;;;;3.20;2.90;;;17.70;63.40;18.40;101020.00;;;;5024970;28;20198;-39
2022/01/02 02:42:41;;;;;;;3.30;3.00;;;17.60;63.30;18.40;101021.00;;;;5025409;28;20167;-39
2022/01/02 02:50:47;;;;;;;3.00;2.80;;;17.60;63.40;18.30;101001.00;;;;5025099;28;20226;-39
2022/01/02 02:53:15;;;;;;;3.10;2.90;;;17.60;63.50;18.30;100997.00;;;;5025024;28;20176;-39
2022/01/02 02:55:45;;;;;;;2.97;2.77;;;17.60;63.30;18.30;100891.00;;;;5025387;28;20182;-39
2022/01/02 02:58:39;;;;;;;3.30;3.00;;;17.60;63.20;18.30;100951.00;;;;5025285;28;20242;-39
2022/01/02 03:01:00;;;;;;;3.17;2.97;;;17.60;63.20;18.30;100978.00;;;;5034120;28;20186;-40
2022/01/02 03:03:26;;;;;;;3.13;2.83;;;17.60;63.30;18.30;100981.00;;;;5033339;28;20174;-39
2022/01/02 03:05:51;;;;;;;3.13;2.93;;;17.60;63.40;18.30;100961.00;;;;5028961;28;20833;-39
2022/01/02 03:08:17;;;;;;;3.57;2.90;;;17.60;63.30;18.30;100968.00;;;;5028803;28;20201;-40
2022/01/02 03:10:43;;;;;;;3.13;2.90;;;17.60;63.50;18.30;100958.00;;;;5028483;28;20258;-39
2022/01/02 03:13:09;;;;;;;3.00;2.80;;;17.60;63.50;18.30;100968.00;;;;5028609;28;20194;-39
2022/01/02 03:15:34;;;;;;;3.00;2.80;;;17.60;63.50;18.30;100968.00;;;;5028649;28;20183;-39
2022/01/02 03:18:00;;;;;;;3.00;2.80;;;17.60;63.60;18.30;100972.00;;;;5028396;28;20747;-39
2022/01/02 03:20:26;;;;;;;3.43;3.03;;;17.60;63.60;18.30;100985.00;;;;5028412;28;20168;-39
2022/01/02 03:22:51;;;;;;;3.00;2.80;;;17.50;63.30;18.30;100982.00;;;;5028304;28;20194;-39
2022/01/02 03:25:17;;;;;;;3.30;3.00;;;17.50;63.30;18.30;100977.00;;;;5028496;28;20182;-40
2022/01/02 03:27:44;;;;;;;2.90;2.70;;;17.50;63.60;18.30;100972.00;;;;5028347;28;20201;-39
2022/01/02 03:30:11;;;;;;;3.23;2.93;;;17.50;63.70;18.30;100977.00;;;;5027982;28;20255;-38
2022/01/02 03:32:37;;;;;;;2.90;2.70;;;17.50;63.60;18.30;100966.00;;;;5028112;28;20185;-39
2022/01/02 03:35:03;;;;;;;3.37;3.07;;;17.50;63.50;18.30;100961.00;;;;5028331;28;20248;-40
2022/01/02 03:37:29;;;;;;;2.97;2.77;;;17.50;63.60;18.30;100971.00;;;;5028018;28;20191;-40
2022/01/02 03:39:55;;;;;;;3.00;2.80;;;17.50;63.70;18.30;100973.00;;;;5027745;28;20833;-39
2022/01/02 03:42:21;;;;;;;3.20;2.90;;;17.50;63.60;18.30;100965.00;;;;5027688;28;20180;-39
2022/01/02 03:44:46;;;;;;;3.00;2.80;;;17.50;63.60;18.30;100962.00;;;;5028107;28;20260;-39
2022/01/02 03:47:12;;;;;;;3.10;2.83;;;17.50;63.90;18.30;100961.00;;;;5027893;28;20196;-40
2022/01/02 03:49:38;;;;;;;2.90;2.70;;;17.50;63.70;18.30;100954.00;;;;5027762;28;20723;-39
2022/01/02 03:52:04;;;;;;;3.00;2.80;;;17.50;63.70;18.30;100952.00;;;;5029543;28;20179;-39
2022/01/02 03:54:30;;;;;;;3.00;2.80;;;17.50;63.70;18.30;100951.00;;;;5031032;28;20273;-39
2022/01/02 03:56:55;;;;;;;3.00;2.80;;;17.50;63.70;18.40;100944.00;;;;5027870;28;20191;-39
2022/01/02 03:59:21;;;;;;;2.70;2.50;;;17.40;63.60;18.40;100926.00;;;;5027514;28;20855;-40
2022/01/02 04:01:47;;;;;;;3.53;2.70;;;17.50;63.80;18.40;100908.00;;;;5027681;28;20319;-39
2022/01/02 04:04:12;;;;;;;3.00;2.80;;;17.50;63.90;18.40;100923.00;;;;5033707;28;20188;-39
2022/01/02 04:06:38;;;;;;;3.00;2.80;;;17.50;63.70;18.40;100906.00;;;;5036947;28;20198;-42
2022/01/02 04:09:04;;;;;;;3.10;2.80;;;17.50;63.70;18.40;100908.00;;;;5041538;28;20211;-41
2022/01/02 04:11:30;;;;;;;2.80;2.60;;;17.50;63.70;18.40;100908.00;;;;5031800;28;20868;-40
2022/01/02 04:13:55;;;;;;;2.70;2.50;;;17.40;63.60;18.40;100896.00;;;;5027622;28;20196;-40
2022/01/02 04:16:21;;;;;;;3.03;2.77;;;17.50;63.70;18.30;100905.00;;;;5027544;28;20566;-40
2022/01/02 04:18:48;;;;;;;3.07;2.77;;;17.50;63.70;18.30;100903.00;;;;5027133;28;20249;-40
2022/01/02 04:21:13;;;;;;;3.10;2.80;;;17.40;63.90;18.30;100911.00;;;;5027636;28;20172;-40
2022/01/02 04:23:39;;;;;;;3.13;2.80;;;17.40;63.90;18.30;100911.00;;;;5027395;28;20199;-39
2022/01/02 04:26:05;;;;;;;2.93;2.70;;;17.40;63.80;18.30;100894.00;;;;5027207;28;20189;-40
2022/01/02 04:28:31;;;;;;;4.80;2.90;;;17.40;63.80;18.30;100899.00;;;;5026964;28;20204;-40
2022/01/02 04:30:57;;;;;;;4.40;3.10;;;17.40;63.90;18.30;100888.00;;;;5027110;28;20185;-40
2022/01/02 04:33:23;;;;;;;5.07;2.97;;;17.50;64.10;18.30;100902.00;;;;5027328;28;20846;-40
2022/01/02 04:35:48;;;;;;;3.73;3.10;;;17.40;63.90;18.30;100907.00;;;;5027399;28;20199;-40
2022/01/02 04:38:14;;;;;;;6.87;2.93;;;17.50;63.90;18.30;100898.00;;;;5027719;28;20202;-40
2022/01/02 04:40:41;;;;;;;3.10;2.80;;;17.50;64.00;18.30;100912.00;;;;5027253;28;20207;-40
2022/01/02 04:43:07;;;;;;;6.30;2.80;;;17.50;64.10;18.30;100919.00;;;;5026940;28;20169;-40
2022/01/02 04:45:33;;;;;;;3.00;2.70;;;17.40;63.90;18.30;100929.00;;;;5027397;28;20187;-40
2022/01/02 04:47:58;;;;;;;3.50;2.73;;;17.40;63.90;18.30;100930.00;;;;5026845;28;20182;-40
2022/01/02 04:50:24;;;;;;;3.70;2.67;;;17.40;63.90;18.30;100921.00;;;;5027128;28;20156;-40
2022/01/02 04:52:50;;;;;;;5.03;2.80;;;17.40;63.90;18.30;100919.00;;;;5026985;28;20192;-40
2022/01/02 04:55:15;;;;;;;4.60;2.90;;;17.40;63.90;18.30;100900.00;;;;5027890;28;20213;-40
2022/01/02 04:57:41;;;;;;;5.43;2.70;;;17.40;63.90;18.30;100891.00;;;;5028261;28;20544;-39
2022/01/02 05:00:08;;;;;;;2.90;2.70;;;17.40;63.90;18.30;100894.00;;;;5027943;28;20184;-39
2022/01/02 05:02:33;;;;;;;2.87;2.67;;;17.40;63.90;18.30;100891.00;;;;5027505;28;20171;-39
2022/01/02 05:04:59;;;;;;;4.20;2.83;;;17.40;63.90;18.30;100885.00;;;;5025640;28;20352;-39
2022/01/02 05:07:25;;;;;;;4.17;2.63;;;17.30;63.80;18.30;100882.00;;;;5031387;28;20721;-44
2022/01/02 05:09:51;;;;;;;3.00;2.70;;;17.40;63.90;18.30;100877.00;;;;5026937;28;20233;-40
2022/01/02 05:12:17;;;;;;;5.67;2.40;;;17.30;63.80;18.20;100884.00;;;;5026643;28;20250;-39
2022/01/02 05:14:42;;;;;;;4.47;2.80;;;17.30;63.80;18.30;100864.00;;;;5039908;28;20192;-40
2022/01/02 05:17:08;;;;;;;4.90;2.70;;;17.30;63.80;18.20;100857.00;;;;5026254;28;20194;-39
2022/01/02 05:19:34;;;;;;;3.73;2.70;;;17.30;63.90;18.20;100853.00;;;;5026282;28;20200;-39
2022/01/02 05:22:00;;;;;;;5.87;2.90;;;17.30;63.80;18.20;100847.00;;;;5025562;28;20546;-39
2022/01/02 05:24:25;;;;;;;2.70;2.50;;;17.30;63.90;18.20;100845.00;;;;5025873;28;20177;-39
2022/01/02 05:26:53;;;;;;;4.23;2.77;;;17.30;63.80;18.20;100845.00;;;;5026107;28;20208;-39
2022/01/02 05:29:19;;;;;;;8.63;2.90;;;17.30;63.80;18.20;100853.00;;;;5025598;28;20274;-39
2022/01/02 05:31:45;;;;;;;7.67;3.47;;;17.30;63.90;18.20;100831.00;;;;5026622;28;20901;-39
2022/01/02 05:34:11;;;;;;;6.63;3.40;;;17.20;63.90;18.20;100658.00;;;;5028759;28;20200;-39
2022/01/02 05:36:37;;;;;;;9.60;3.10;;;17.30;63.90;18.20;100808.00;;;;5026073;28;20229;-40
2022/01/02 05:39:03;;;;;;;12.13;3.30;;;17.20;63.90;18.20;100824.00;;;;5025209;28;20191;-40
2022/01/02 05:41:30;;;;;;;9.47;3.50;;;17.30;64.10;18.20;100818.00;;;;5026199;28;20175;-39
2022/01/02 05:43:56;;;;;;;7.33;3.10;;;17.30;64.30;18.20;100813.00;;;;5025591;28;20605;-40
2022/01/02 05:46:21;;;;;;;6.97;3.20;;;17.30;64.50;18.20;100819.00;;;;5026020;28;20205;-40
2022/01/02 05:48:47;;;;;;;4.80;2.70;;;17.30;64.90;18.20;100814.00;;;;5025538;28;20184;-39
2022/01/02 05:51:13;;;;;;;5.93;3.10;;;17.30;64.90;18.20;100800.00;;;;5025743;28;20203;-39
2022/01/02 05:53:39;;;;;;;9.27;3.03;;;17.30;64.90;18.20;100794.00;;;;5025137;28;20627;-40
2022/01/02 05:56:05;;;;;;;6.50;3.10;;;17.30;65.00;18.20;100790.00;;;;5025143;28;20198;-40
2022/01/02 05:58:31;;;;;;;4.67;3.27;;;17.30;65.10;18.20;100785.00;;;;5023705;28;20720;-40
2022/01/02 06:00:56;;;;;;;6.00;2.80;;;17.30;65.00;18.20;100790.00;;;;5024771;28;20265;-40
2022/01/02 06:03:22;;;;;;;5.77;3.20;;;17.30;65.00;17.90;100778.00;;;;5025235;28;20544;-39
2022/01/02 06:05:48;;;;;;;3.77;2.90;;;17.20;64.90;18.10;100779.00;;;;5025456;28;20203;-40
2022/01/02 06:08:14;;;;;;;4.23;3.13;;;17.30;64.90;18.10;100762.00;;;;5025161;28;20644;-40
2022/01/02 06:10:40;;;;;;;3.93;2.90;;;17.20;64.80;18.10;100767.00;;;;5024642;28;20230;-40
2022/01/02 06:13:05;;;;;;;4.20;2.73;;;17.20;64.70;18.10;100767.00;;;;5040735;28;20663;-40
2022/01/02 06:15:31;;;;;;;6.20;2.97;;;17.20;64.60;18.10;100760.00;;;;5030310;28;20192;-40
2022/01/02 06:17:57;;;;;;;5.80;2.83;;;17.20;64.60;18.10;100757.00;;;;5026017;28;20186;-40
2022/01/02 06:20:23;;;;;;;6.33;2.90;;;17.20;64.60;18.10;100767.00;;;;5025314;28;20178;-40
2022/01/02 06:22:50;;;;;;;5.03;3.07;;;17.20;64.60;18.10;100761.00;;;;5024977;28;20746;-40
2022/01/02 06:25:16;;;;;;;6.00;2.80;;;17.20;64.60;18.10;100745.00;;;;5025590;28;20175;-40
2022/01/02 06:27:42;;;;;;;5.23;3.10;;;17.20;64.60;18.10;100749.00;;;;5025626;28;20201;-40
2022/01/02 06:30:09;;;;;;;4.43;3.23;;;17.20;64.60;18.10;100755.00;;;;5024969;28;20180;-40
2022/01/02 06:32:34;;;;;;;4.47;2.90;;;17.20;64.60;18.10;100773.00;;;;5025270;28;20191;-40
2022/01/02 06:35:00;;;;;;;4.43;3.00;;;17.10;64.30;18.10;100769.00;;;;5027041;28;20578;-39
2022/01/02 06:37:26;;;;;;;3.37;2.83;;;17.10;64.30;18.10;100779.00;;;;5028783;28;20691;-39
2022/01/02 06:39:51;;;;;;;3.87;2.80;;;17.10;64.30;18.10;100769.00;;;;5028599;28;20203;-39
2022/01/02 06:42:17;;;;;;;3.90;2.70;;;17.10;64.30;18.10;100760.00;;;;5029011;28;20172;-39
2022/01/02 06:44:43;;;;;;;3.37;2.80;;;17.20;64.40;18.10;100752.00;;;;5028832;28;20634;-39
2022/01/02 06:47:08;;;;;;;4.30;2.87;;;17.10;64.30;18.10;100738.00;;;;5028496;28;20236;-39
2022/01/02 06:49:35;;;;;;;5.03;2.90;;;17.10;64.30;18.10;100741.00;;;;5028889;28;20173;-39
2022/01/02 06:52:01;;;;;;;3.87;2.70;;;17.10;64.30;18.10;100720.00;;;;5028603;28;20179;-39
2022/01/02 06:54:26;;;;;;;3.07;2.83;;;17.10;64.30;18.10;100718.00;;;;5028958;28;20179;-39
2022/01/02 06:56:52;;;;;;;4.80;2.90;;;17.10;64.30;18.10;100725.00;;;;5028428;28;20312;-39
2022/01/02 06:59:18;;;;;;;4.27;2.80;;;17.10;64.30;18.00;100728.00;;;;5027871;28;20191;-39
2022/01/02 07:01:44;;;;;;;4.20;3.10;;;17.10;64.20;18.00;100718.00;;;;5029002;28;20165;-39
2022/01/02 07:04:10;;;;;;;3.23;2.80;;;17.10;64.20;18.00;100700.00;;;;5028787;28;20537;-39
2022/01/02 07:06:35;;;;;;;4.20;2.93;;;17.00;64.10;18.00;100709.00;;;;5028099;28;20192;-39
2022/01/02 07:09:01;;;;;;;5.60;2.97;;;17.00;64.10;18.00;100715.00;;;;5027086;28;20177;-39
2022/01/02 07:11:27;;;;;;;4.63;2.90;;;17.00;64.10;18.00;100692.00;;;;5028457;28;20258;-39
2022/01/02 07:13:53;;;;;;;3.13;2.83;;;17.00;64.10;18.00;100719.00;;;;5028620;28;20183;-39
2022/01/02 07:16:18;;;;;;;4.03;2.90;;;17.00;64.10;18.00;100708.00;;;;5028359;28;20189;-39
2022/01/02 07:18:44;;;;;;;5.00;2.97;;;17.00;64.10;18.00;100693.00;;;;5032134;28;20197;-39
2022/01/02 07:21:10;;;;;;;3.77;2.93;;;17.00;64.00;18.00;100686.00;;;;5028486;28;20175;-39
2022/01/02 07:23:35;;;;;;;3.07;2.80;;;17.00;64.00;18.00;100690.00;;;;5028793;28;20199;-39
2022/01/02 07:26:01;;;;;;;2.97;2.73;;;17.00;64.10;18.00;100705.00;;;;5027974;28;20187;-39
2022/01/02 07:28:29;;;;;;;3.00;2.60;;;17.00;64.10;18.00;100710.00;;;;5027958;28;20547;-39
2022/01/02 07:30:55;;;;;;;3.03;2.83;;;17.00;64.00;18.00;100697.00;;;;5028308;28;20602;-39
2022/01/02 07:33:20;;;;;;;2.60;2.40;;;17.00;63.90;18.00;100684.00;;;;5028159;28;20175;-39
2022/01/02 07:35:46;;;;;;;3.00;2.70;;;16.90;63.90;18.00;100686.00;;;;5027918;28;20231;-39
2022/01/02 07:38:12;;;;;;;3.40;2.80;;;16.90;63.90;17.90;100674.00;;;;5028215;28;20191;-39
2022/01/02 07:40:37;;;;;;;3.13;2.83;;;16.90;63.90;17.90;100652.00;;;;5027954;28;20650;-39
2022/01/02 07:43:03;;;;;;;3.23;2.70;;;16.90;63.90;17.90;100632.00;;;;5028157;28;20171;-39
2022/01/02 07:45:29;;;;;;;3.00;2.80;;;16.90;64.00;17.90;100628.00;;;;5027321;28;20172;-39
2022/01/02 07:47:54;;;;;;;3.23;2.93;;;16.90;64.80;17.90;100620.00;;;;5028117;28;20529;-39
2022/01/02 07:50:22;;;;;;;3.03;2.70;;;16.90;64.70;17.90;100602.00;;;;5027439;28;20633;-39
2022/01/02 07:52:48;;;;;;;2.93;2.70;;;16.90;64.00;17.90;100601.00;;;;5027950;28;20174;-39
2022/01/02 07:55:14;;;;;;;3.77;3.07;;;16.90;63.80;17.80;100567.00;;;;5027697;28;20170;-39
2022/01/02 07:57:40;;;;;;;3.30;3.00;;;16.90;63.90;17.80;100561.00;;;;5027741;28;20657;-39
2022/01/02 08:00:07;;;;;;;5.83;3.10;;;16.90;64.00;17.80;100554.00;;;;5027478;28;20205;-39
2022/01/02 08:02:32;;;;;;;3.03;2.83;;;16.90;64.00;17.80;100563.00;;;;5027821;28;20171;-39
2022/01/02 08:04:58;;;;;;;3.10;2.80;;;16.90;63.90;17.80;100571.00;;;;5027375;28;20174;-39
2022/01/02 08:07:24;;;;;;;3.07;2.80;;;16.90;63.80;17.70;100571.00;;;;5027832;28;20186;-39
2022/01/02 08:09:49;;;;;;;3.10;2.80;;;16.90;63.80;17.70;100552.00;;;;5027353;28;20167;-39
2022/01/02 08:12:15;;;;;;;3.43;2.67;;;16.80;63.70;17.70;100543.00;;;;5027769;28;20543;-39
2022/01/02 08:14:41;;;;;;;3.80;2.90;;;16.80;63.60;17.70;100544.00;;;;5027172;28;20202;-39
2022/01/02 08:17:06;;;;;;;3.30;3.00;;;16.90;63.80;17.70;100543.00;;;;5026990;28;20522;-39
2022/01/02 08:19:32;;;;;;;3.00;2.70;;;16.80;63.50;17.70;100536.00;;;;5027205;28;20660;-39
2022/01/02 08:21:58;;;;;;;2.80;2.60;;;16.80;63.60;17.70;100501.00;;;;5027450;28;20167;-39
2022/01/02 08:24:23;;;;;;;3.07;2.87;;;16.80;63.60;17.70;100516.00;;;;5027292;28;20175;-39
2022/01/02 08:26:49;;;;;;;3.80;2.90;;;16.80;63.60;17.60;100494.00;;;;5026701;28;20190;-39
2022/01/02 08:29:15;;;;;;;3.40;3.07;;;16.80;63.50;17.60;100497.00;;;;5027045;28;20171;-38
2022/01/02 08:31:40;;;;;;;3.20;2.90;;;16.80;63.40;17.60;100514.00;;;;5027369;28;20179;-39
2022/01/02 08:34:06;;;;;;;3.20;2.93;;;16.90;63.50;17.60;100518.00;;;;5027458;28;20609;-39
2022/01/02 08:36:32;;;;;;;3.17;2.87;;;16.80;63.30;17.60;100493.00;;;;5026850;28;20677;-39
2022/01/02 08:38:58;;;;;;;3.13;2.90;;;16.80;63.30;17.60;100475.00;;;;5026318;28;20245;-39
2022/01/02 08:41:23;;;;;;;3.50;2.93;;;16.80;63.40;17.50;100475.00;;;;5026924;28;20170;-38
2022/01/02 08:43:49;;;;;;;2.90;2.70;;;16.80;63.30;17.50;100476.00;;;;5027406;28;20554;-39
2022/01/02 08:46:15;;;;;;;2.90;2.70;;;16.80;63.30;17.60;100490.00;;;;5026380;28;20552;-40
2022/01/02 08:48:40;;;;;;;3.13;2.80;;;16.70;63.20;17.60;100496.00;;;;5026640;28;20202;-39
2022/01/02 08:51:07;;;;;;;3.30;3.00;;;16.70;63.20;17.60;100517.00;;;;5030590;28;20183;-39
2022/01/02 08:53:34;;;;;;;3.17;2.87;;;16.70;63.30;17.50;100516.00;;;;5028297;28;20168;-39
2022/01/02 08:56:00;;;;;;;3.00;2.70;;;16.70;63.30;17.60;100515.00;;;;5026977;28;20195;-39
2022/01/02 08:58:26;;;;;;;2.70;2.50;;;16.70;63.40;17.60;100525.00;;;;5026005;28;20636;-39
2022/01/02 09:00:51;;;;;;;2.90;2.63;;;16.70;63.30;17.60;100519.00;;;;5027418;28;20167;-40
2022/01/02 09:03:17;;;;;;;2.90;2.70;;;16.70;63.40;17.60;100536.00;;;;5030286;28;20538;-39
2022/01/02 09:05:43;;;;;;;3.20;2.90;;;16.70;63.40;17.60;100541.00;;;;5035677;28;20189;-39
2022/01/02 09:08:09;;;;;;;2.80;2.60;;;16.70;63.30;17.60;100557.00;;;;5046064;28;20193;-39
2022/01/02 09:10:34;;;;;;;2.80;2.60;;;16.70;63.20;17.60;100519.00;;;;5046008;28;20568;-39
2022/01/02 09:13:00;;;;;;;2.80;2.60;;;16.70;63.20;17.60;100513.00;;;;5046284;28;20335;-39
2022/01/02 09:15:26;;;;;;;2.90;2.70;;;16.70;63.20;17.70;100500.00;;;;5046130;28;20634;-40
2022/01/02 09:17:51;;;;;;;2.90;2.70;;;16.60;63.10;17.70;100503.00;;;;5044975;28;20222;-39
2022/01/02 09:20:17;;;;;;;4.50;2.90;;;16.60;63.10;17.60;100522.00;;;;5029535;28;20175;-39
2022/01/02 09:22:43;;;;;;;7.90;2.97;;;16.60;63.40;17.70;100519.00;;;;5029413;28;20186;-39
2022/01/02 09:25:09;;;;;;;4.73;2.63;;;16.60;63.70;17.70;100507.00;;;;5028881;28;20179;-39
2022/01/02 09:27:36;;;;;;;4.97;3.10;;;16.70;64.00;17.70;100512.00;;;;5029215;28;20217;-39
2022/01/02 09:30:04;;;;;;;14.97;3.00;;;16.80;63.90;17.80;100516.00;;;;5030498;28;20242;-40
2022/01/02 09:32:32;;;;;;;5.83;2.87;;;17.00;64.70;17.90;100539.00;;;;5029773;28;20179;-39
2022/01/02 09:34:58;;;;;;;5.70;2.63;;;17.20;63.50;18.00;100521.00;;;;5030076;28;20163;-40
2022/01/02 09:37:24;;;;;;;5.07;2.53;;;17.60;63.20;18.10;100529.00;;;;5034008;28;20578;-39
2022/01/02 09:39:49;;;;;;;22.17;3.97;;;17.80;62.80;18.20;100538.00;;;;5035093;28;20208;-40
2022/01/02 09:42:15;;;;;;;11.90;3.03;;;18.10;62.80;18.40;100528.00;;;;5030141;28;20526;-40
2022/01/02 09:44:41;;;;;;;8.97;2.80;;;18.40;62.30;18.50;100538.00;;;;5027712;28;20173;-40
2022/01/02 09:47:08;;;;;;;9.07;2.80;;;18.50;61.80;18.70;100543.00;;;;5028807;28;20619;-40
2022/01/02 09:49:34;;;;;;;6.83;2.67;;;18.70;62.00;18.80;100534.00;;;;5028847;28;20223;-39
2022/01/02 09:52:00;;;;;;;4.77;2.30;;;18.70;61.90;18.90;100520.00;;;;5027575;28;20176;-39
2022/01/02 09:54:26;;;;;;;6.30;2.53;;;18.90;61.90;19.00;100503.00;;;;5027203;28;20634;-39
2022/01/02 09:56:52;;;;;;;4.93;2.60;;;19.00;61.80;19.10;100495.00;;;;5033267;28;20202;-40
2022/01/02 09:59:17;;;;;;;6.03;2.40;;;19.10;61.70;19.20;100505.00;;;;5034904;28;20561;-40
2022/01/02 10:01:43;;;;;;;5.00;2.53;;;19.00;61.70;19.20;100522.00;;;;5028159;28;20174;-40
2022/01/02 10:04:09;;;;;;;5.03;2.40;;;19.00;61.60;19.30;100545.00;;;;5028963;28;20174;-40
2022/01/02 10:06:48;;;;;;;4.13;2.60;;;19.10;61.90;19.40;100537.00;;;;5027883;28;20190;-39
2022/01/02 10:09:33;;;;;;;4.67;2.53;;;19.10;62.00;19.40;100521.00;;;;5029263;28;20151;-40
2022/01/02 10:12:28;;;;;;;5.57;2.17;;;19.10;62.00;19.40;100529.00;;;;5032603;28;20176;-39
2022/01/02 10:15:19;;;;;;;5.83;2.30;;;19.10;62.00;19.50;100524.00;;;;5032886;28;20210;-39
2022/01/02 10:17:59;;;;;;;4.77;2.30;;;19.10;62.10;19.50;100536.00;;;;5032416;28;20581;-40
2022/01/02 10:20:31;;;;;;;2.43;2.13;;;19.10;62.30;19.50;100547.00;;;;5041871;28;20551;-40
2022/01/02 10:23:20;;;;;;;2.87;2.43;;;19.10;62.30;19.50;100559.00;;;;5031220;28;20184;-40
2022/01/02 10:26:00;;;;;;;6.03;2.40;;;19.10;62.40;19.00;100467.00;;;;5032320;28;20170;-40
2022/01/02 10:28:39;;;;;;;3.17;2.50;;;19.00;62.30;19.50;100531.00;;;;5031741;28;20205;-39
2022/01/02 10:31:12;;;;;;;2.43;2.20;;;19.00;62.50;19.50;100525.00;;;;5032442;28;20171;-39
2022/01/02 10:33:57;;;;;;;2.50;2.10;;;19.00;62.70;19.50;100538.00;;;;5033126;28;20410;-39
2022/01/02 10:36:40;;;;;;;2.43;2.23;;;18.90;62.80;19.50;100521.00;;;;5047395;28;20296;-40
2022/01/02 10:39:20;;;;;;;2.97;2.27;;;18.90;62.80;19.50;100502.00;;;;5051665;28;20197;-40
2022/01/02 10:41:51;;;;;;;2.70;2.23;;;18.90;62.80;19.50;100511.00;;;;5052111;28;20208;-40
2022/01/02 10:44:33;;;;;;;2.40;2.20;;;18.90;62.80;19.50;100505.00;;;;5051819;28;20162;-40
2022/01/02 10:47:16;;;;;;;2.90;2.07;;;18.90;62.90;19.50;100511.00;;;;5051387;28;20261;-40
2022/01/02 10:50:05;;;;;;;3.20;2.40;;;18.80;63.00;19.50;100497.00;;;;5056780;28;20166;-39
2022/01/02 10:52:39;;;;;;;3.07;2.20;;;18.80;63.10;19.40;100501.00;;;;5051882;28;20162;-40
2022/01/02 10:55:24;;;;;;;2.57;2.30;;;18.80;63.20;19.50;100502.00;;;;5047975;28;20676;-40